PWSweather.com
Personal Weather Stations
Station Observations
RODOLIVOS
Serres, Rodolivos SerresGR 62041

SerresRodolivos SerresGR 62041

Lat: 40.920725, Lon: 23.975814

Elevation: 1161

Station Type: Davis Vantage Vue

http://rodolivos-weather.gr/

High Low Average
Temperature 91.5°F33.1°F 71.8°F22.1°F 82.3°F27.9°F
Dew Point 62.6°F17.0°F 55.3°F12.9°F 58.0°F14.4°F
Winds 5.8 mph -9.3 mph - Calm Calm 1.7 mph 2.7 mph
Wind Gusts 10.4 mph16.7 mph -- 3.4 mph5.5 mph
Humidity 57% 31% 44%
Pressure 29.93 in1013.50 in 29.87 in1011.50 in -
Precipitation 0.00 in0.00 in - -
Hour Temp Dew Point Humidity Winds Wind Gusts Pressure Precip Precip Rate Daily Precip Total
05:50 AM 71.8°F22.1°C 55.7°F13.2°C 57% 5.8 mph ENE9.3 kmh ENE 10.4 mph16.7 kmh 29.91 in1012.9 mb - 0.00 in0.0 mm 0.00 in0.0 mm
06:00 AM 72.1°F22.3°C 55.5°F13.1°C 56% 1.2 mph NE1.9 kmh NE 3.5 mph5.6 kmh 29.91 in1012.9 mb - 0.00 in0.0 mm 0.00 in0.0 mm
06:10 AM 72.4°F22.4°C 55.3°F12.9°C 55% 2.3 mph E3.7 kmh E 4.6 mph7.4 kmh 29.91 in1012.9 mb - 0.00 in0.0 mm 0.00 in0.0 mm
06:20 AM 72.8°F22.7°C 55.6°F13.1°C 55% 2.3 mph ENE3.7 kmh ENE 4.6 mph7.4 kmh 29.91 in1012.9 mb - 0.00 in0.0 mm 0.00 in0.0 mm
06:30 AM 73.4°F23.0°C 55.7°F13.2°C 54% 3.5 mph E5.6 kmh E 5.8 mph9.3 kmh 29.91 in1012.9 mb - 0.00 in0.0 mm 0.00 in0.0 mm
06:40 AM 74.0°F23.3°C 55.8°F13.2°C 53% 2.3 mph ENE3.7 kmh ENE 3.5 mph5.6 kmh 29.91 in1012.9 mb - 0.00 in0.0 mm 0.00 in0.0 mm
06:50 AM 74.6°F23.7°C 56.3°F13.5°C 53% 3.5 mph ENE5.6 kmh ENE 4.6 mph7.4 kmh 29.91 in1012.9 mb - 0.00 in0.0 mm 0.00 in0.0 mm
07:00 AM 75.3°F24.1°C 56.4°F13.6°C 52% 2.3 mph E3.7 kmh E 3.5 mph5.6 kmh 29.92 in1013.2 mb - 0.00 in0.0 mm 0.00 in0.0 mm
07:10 AM 75.7°F24.3°C 56.8°F13.8°C 52% 3.5 mph E5.6 kmh E 4.6 mph7.4 kmh 29.92 in1013.2 mb - 0.00 in0.0 mm 0.00 in0.0 mm
07:20 AM 76.2°F24.6°C 56.8°F13.8°C 51% 1.2 mph NE1.9 kmh NE 2.3 mph3.7 kmh 29.92 in1013.2 mb - 0.00 in0.0 mm 0.00 in0.0 mm
07:30 AM 77.0°F25.0°C 57.5°F14.2°C 51% 2.3 mph ENE3.7 kmh ENE 5.8 mph9.3 kmh 29.92 in1013.2 mb - 0.00 in0.0 mm 0.00 in0.0 mm
07:40 AM 77.2°F25.1°C 57.1°F13.9°C 50% 2.3 mph NNE3.7 kmh NNE 3.5 mph5.6 kmh 29.92 in1013.2 mb - 0.00 in0.0 mm 0.00 in0.0 mm
07:50 AM 77.9°F25.5°C 56.6°F13.7°C 48% 2.3 mph N3.7 kmh N 4.6 mph7.4 kmh 29.92 in1013.2 mb - 0.00 in0.0 mm 0.00 in0.0 mm
08:00 AM 78.1°F25.6°C 57.4°F14.1°C 49% 3.5 mph N5.6 kmh N 4.6 mph7.4 kmh 29.92 in1013.2 mb - 0.00 in0.0 mm 0.00 in0.0 mm
08:10 AM 78.5°F25.8°C 57.7°F14.3°C 49% 3.5 mph NE5.6 kmh NE 6.9 mph11.1 kmh 29.93 in1013.5 mb - 0.00 in0.0 mm 0.00 in0.0 mm
08:20 AM 78.9°F26.1°C 57.0°F13.9°C 47% 3.5 mph NE5.6 kmh NE 5.8 mph9.3 kmh 29.93 in1013.5 mb - 0.00 in0.0 mm 0.00 in0.0 mm
08:30 AM 79.3°F26.3°C 57.4°F14.1°C 47% 2.3 mph NE3.7 kmh NE 3.5 mph5.6 kmh 29.93 in1013.5 mb - 0.00 in0.0 mm 0.00 in0.0 mm
08:40 AM 79.9°F26.6°C 57.2°F14.0°C 46% 2.3 mph N3.7 kmh N 3.5 mph5.6 kmh 29.92 in1013.2 mb - 0.00 in0.0 mm 0.00 in0.0 mm
08:50 AM 80.4°F26.9°C 57.1°F13.9°C 45% Calm Calm 2.3 mph3.7 kmh 29.93 in1013.5 mb - 0.00 in0.0 mm 0.00 in0.0 mm
09:00 AM 81.1°F27.3°C 57.1°F13.9°C 44% 2.3 mph E3.7 kmh E 3.5 mph5.6 kmh 29.93 in1013.5 mb - 0.00 in0.0 mm 0.00 in0.0 mm
09:10 AM 81.4°F27.4°C 58.0°F14.4°C 45% 1.2 mph NE1.9 kmh NE 3.5 mph5.6 kmh 29.93 in1013.5 mb - 0.00 in0.0 mm 0.00 in0.0 mm
09:20 AM 82.1°F27.8°C 56.7°F13.7°C 42% 1.2 mph N1.9 kmh N 2.3 mph3.7 kmh 29.93 in1013.5 mb - 0.00 in0.0 mm 0.00 in0.0 mm
09:30 AM 82.9°F28.3°C 56.8°F13.8°C 41% 1.2 mph N1.9 kmh N 2.3 mph3.7 kmh 29.92 in1013.2 mb - 0.00 in0.0 mm 0.00 in0.0 mm
09:40 AM 83.4°F28.6°C 57.3°F14.1°C 41% 2.3 mph N3.7 kmh N 3.5 mph5.6 kmh 29.93 in1013.5 mb - 0.00 in0.0 mm 0.00 in0.0 mm
09:50 AM 83.9°F28.8°C 57.0°F13.9°C 40% 2.3 mph NNE3.7 kmh NNE 2.3 mph3.7 kmh 29.93 in1013.5 mb - 0.00 in0.0 mm 0.00 in0.0 mm
10:00 AM 84.5°F29.2°C 58.9°F14.9°C 42% 5.8 mph N9.3 kmh N 8.1 mph13.0 kmh 29.93 in1013.5 mb - 0.00 in0.0 mm 0.00 in0.0 mm
10:10 AM 84.9°F29.4°C 58.6°F14.8°C 41% 1.2 mph N1.9 kmh N 4.6 mph7.4 kmh 29.93 in1013.5 mb - 0.00 in0.0 mm 0.00 in0.0 mm
10:20 AM 86.0°F30.0°C 58.9°F14.9°C 40% Calm Calm 1.2 mph1.9 kmh 29.93 in1013.5 mb - 0.00 in0.0 mm 0.00 in0.0 mm
10:30 AM 86.9°F30.5°C 58.2°F14.6°C 38% 1.2 mph N1.9 kmh N 1.2 mph1.9 kmh 29.93 in1013.5 mb - 0.00 in0.0 mm 0.00 in0.0 mm
10:40 AM 87.1°F30.6°C 59.1°F15.1°C 39% 2.3 mph NW3.7 kmh NW 4.6 mph7.4 kmh 29.92 in1013.2 mb - 0.00 in0.0 mm 0.00 in0.0 mm
10:50 AM 87.5°F30.8°C 58.0°F14.4°C 37% 2.3 mph N3.7 kmh N 2.3 mph3.7 kmh 29.92 in1013.2 mb - 0.00 in0.0 mm 0.00 in0.0 mm
11:00 AM 87.8°F31.0°C 57.5°F14.2°C 36% 1.2 mph N1.9 kmh N 2.3 mph3.7 kmh 29.92 in1013.2 mb - 0.00 in0.0 mm 0.00 in0.0 mm
11:10 AM 88.2°F31.2°C 57.9°F14.4°C 36% Calm Calm 1.2 mph1.9 kmh 29.92 in1013.2 mb - 0.00 in0.0 mm 0.00 in0.0 mm
11:20 AM 88.8°F31.6°C 58.4°F14.7°C 36% 2.3 mph NNW3.7 kmh NNW 3.5 mph5.6 kmh 29.92 in1013.2 mb - 0.00 in0.0 mm 0.00 in0.0 mm
11:30 AM 89.0°F31.7°C 57.8°F14.3°C 35% 1.2 mph NW1.9 kmh NW 3.5 mph5.6 kmh 29.92 in1013.2 mb - 0.00 in0.0 mm 0.00 in0.0 mm
11:40 AM 88.1°F31.2°C 59.3°F15.2°C 38% 3.5 mph SSW5.6 kmh SSW 4.6 mph7.4 kmh 29.91 in1012.9 mb - 0.00 in0.0 mm 0.00 in0.0 mm
11:50 AM 87.8°F31.0°C 59.8°F15.4°C 39% 1.2 mph NW1.9 kmh NW 2.3 mph3.7 kmh 29.91 in1012.9 mb - 0.00 in0.0 mm 0.00 in0.0 mm
12:00 PM 87.9°F31.1°C 59.2°F15.1°C 38% 2.3 mph SSE3.7 kmh SSE 5.8 mph9.3 kmh 29.91 in1012.9 mb - 0.00 in0.0 mm 0.00 in0.0 mm
12:10 PM 88.4°F31.3°C 58.8°F14.9°C 37% 4.6 mph S7.4 kmh S 6.9 mph11.1 kmh 29.91 in1012.9 mb - 0.00 in0.0 mm 0.00 in0.0 mm
12:20 PM 88.2°F31.2°C 58.6°F14.8°C 37% 1.2 mph WNW1.9 kmh WNW 1.2 mph1.9 kmh 29.91 in1012.9 mb - 0.00 in0.0 mm 0.00 in0.0 mm
12:30 PM 87.4°F30.8°C 57.9°F14.4°C 37% 2.3 mph E3.7 kmh E 5.8 mph9.3 kmh 29.91 in1012.9 mb - 0.00 in0.0 mm 0.00 in0.0 mm
12:40 PM 87.9°F31.1°C 57.6°F14.2°C 36% Calm Calm 2.3 mph3.7 kmh 29.91 in1012.9 mb - 0.00 in0.0 mm 0.00 in0.0 mm
12:50 PM 88.1°F31.2°C 57.0°F13.9°C 35% 1.2 mph E1.9 kmh E 2.3 mph3.7 kmh 29.91 in1012.9 mb - 0.00 in0.0 mm 0.00 in0.0 mm
01:00 PM 89.3°F31.8°C 56.4°F13.6°C 33% 1.2 mph E1.9 kmh E 1.2 mph1.9 kmh 29.91 in1012.9 mb - 0.00 in0.0 mm 0.00 in0.0 mm
01:10 PM 91.0°F32.8°C 56.1°F13.4°C 31% 1.2 mph NW1.9 kmh NW 3.5 mph5.6 kmh 29.90 in1012.5 mb - 0.00 in0.0 mm 0.00 in0.0 mm
01:20 PM 91.5°F33.1°C 59.2°F15.1°C 34% 3.5 mph E5.6 kmh E 5.8 mph9.3 kmh 29.90 in1012.5 mb - 0.00 in0.0 mm 0.00 in0.0 mm
01:30 PM 91.3°F32.9°C 59.8°F15.4°C 35% 1.2 mph NNW1.9 kmh NNW 3.5 mph5.6 kmh 29.90 in1012.5 mb - 0.00 in0.0 mm 0.00 in0.0 mm
01:40 PM 91.3°F32.9°C 59.0°F15.0°C 34% 1.2 mph NW1.9 kmh NW 4.6 mph7.4 kmh 29.90 in1012.5 mb - 0.00 in0.0 mm 0.00 in0.0 mm
01:50 PM 90.9°F32.7°C 59.5°F15.3°C 35% 1.2 mph ESE1.9 kmh ESE 10.4 mph16.7 kmh 29.90 in1012.5 mb - 0.00 in0.0 mm 0.00 in0.0 mm
02:00 PM 91.3°F32.9°C 59.8°F15.4°C 35% 3.5 mph S5.6 kmh S 8.1 mph13.0 kmh 29.89 in1012.2 mb - 0.00 in0.0 mm 0.00 in0.0 mm
02:10 PM 90.2°F32.3°C 58.8°F14.9°C 35% 1.2 mph S1.9 kmh S 4.6 mph7.4 kmh 29.89 in1012.2 mb - 0.00 in0.0 mm 0.00 in0.0 mm
02:20 PM 90.0°F32.2°C 58.7°F14.8°C 35% 2.3 mph WNW3.7 kmh WNW 3.5 mph5.6 kmh 29.89 in1012.2 mb - 0.00 in0.0 mm 0.00 in0.0 mm
02:30 PM 89.9°F32.2°C 57.8°F14.3°C 34% 3.5 mph S5.6 kmh S 5.8 mph9.3 kmh 29.89 in1012.2 mb - 0.00 in0.0 mm 0.00 in0.0 mm
02:40 PM 87.9°F31.1°C 57.6°F14.2°C 36% 1.2 mph SE1.9 kmh SE 1.2 mph1.9 kmh 29.89 in1012.2 mb - 0.00 in0.0 mm 0.00 in0.0 mm
02:50 PM 87.0°F30.6°C 56.8°F13.8°C 36% 2.3 mph N3.7 kmh N 5.8 mph9.3 kmh 29.90 in1012.5 mb - 0.00 in0.0 mm 0.00 in0.0 mm
03:00 PM 84.4°F29.1°C 58.1°F14.5°C 41% 4.6 mph 7.4 kmh 5.8 mph9.3 kmh 29.91 in1012.9 mb - 0.00 in0.0 mm 0.00 in0.0 mm
03:10 PM 83.8°F28.8°C 58.3°F14.6°C 42% 3.5 mph NNE5.6 kmh NNE 6.9 mph11.1 kmh 29.91 in1012.9 mb - 0.00 in0.0 mm 0.00 in0.0 mm
03:20 PM 82.1°F27.8°C 58.6°F14.8°C 45% 4.6 mph NE7.4 kmh NE 6.9 mph11.1 kmh 29.91 in1012.9 mb - 0.00 in0.0 mm 0.00 in0.0 mm
03:30 PM 81.6°F27.6°C 59.4°F15.2°C 47% 1.2 mph NNE1.9 kmh NNE 3.5 mph5.6 kmh 29.91 in1012.9 mb - 0.00 in0.0 mm 0.00 in0.0 mm
03:40 PM 81.9°F27.7°C 59.7°F15.4°C 47% 1.2 mph N1.9 kmh N 2.3 mph3.7 kmh 29.90 in1012.5 mb - 0.00 in0.0 mm 0.00 in0.0 mm
03:50 PM 82.9°F28.3°C 60.0°F15.6°C 46% 1.2 mph NNW1.9 kmh NNW 3.5 mph5.6 kmh 29.90 in1012.5 mb - 0.00 in0.0 mm 0.00 in0.0 mm
04:00 PM 83.3°F28.5°C 59.7°F15.4°C 45% Calm Calm -- 29.90 in1012.5 mb - 0.00 in0.0 mm 0.00 in0.0 mm
04:10 PM 83.1°F28.4°C 59.5°F15.3°C 45% 1.2 mph S1.9 kmh S 3.5 mph5.6 kmh 29.89 in1012.2 mb - 0.00 in0.0 mm 0.00 in0.0 mm
04:20 PM 82.7°F28.2°C 59.8°F15.4°C 46% 1.2 mph SE1.9 kmh SE 2.3 mph3.7 kmh 29.89 in1012.2 mb - 0.00 in0.0 mm 0.00 in0.0 mm
04:30 PM 82.6°F28.1°C 60.3°F15.7°C 47% Calm Calm 2.3 mph3.7 kmh 29.89 in1012.2 mb - 0.00 in0.0 mm 0.00 in0.0 mm
04:40 PM 82.2°F27.9°C 60.0°F15.6°C 47% Calm Calm 1.2 mph1.9 kmh 29.89 in1012.2 mb - 0.00 in0.0 mm 0.00 in0.0 mm
04:50 PM 82.4°F28.0°C 60.1°F15.6°C 47% 1.2 mph ESE1.9 kmh ESE 1.2 mph1.9 kmh 29.89 in1012.2 mb - 0.00 in0.0 mm 0.00 in0.0 mm
05:00 PM 82.4°F28.0°C 59.5°F15.3°C 46% Calm Calm -- 29.89 in1012.2 mb - 0.00 in0.0 mm 0.00 in0.0 mm
05:10 PM 82.1°F27.8°C 59.3°F15.2°C 46% Calm Calm 1.2 mph1.9 kmh 29.88 in1011.9 mb - 0.00 in0.0 mm 0.00 in0.0 mm
05:20 PM 82.2°F27.9°C 60.6°F15.9°C 48% Calm Calm -- 29.88 in1011.9 mb - 0.00 in0.0 mm 0.00 in0.0 mm
05:30 PM 81.4°F27.4°C 62.6°F17.0°C 53% 2.3 mph E3.7 kmh E 3.5 mph5.6 kmh 29.88 in1011.9 mb - 0.00 in0.0 mm 0.00 in0.0 mm
05:40 PM 81.4°F27.4°C 61.5°F16.4°C 51% Calm Calm 1.2 mph1.9 kmh 29.88 in1011.9 mb - 0.00 in0.0 mm 0.00 in0.0 mm
05:50 PM 82.2°F27.9°C 61.7°F16.5°C 50% 2.3 mph SE3.7 kmh SE 3.5 mph5.6 kmh 29.87 in1011.5 mb - 0.00 in0.0 mm 0.00 in0.0 mm
06:00 PM 82.6°F28.1°C 59.7°F15.4°C 46% Calm Calm 1.2 mph1.9 kmh 29.87 in1011.5 mb - 0.00 in0.0 mm 0.00 in0.0 mm
06:10 PM 82.6°F28.1°C 60.3°F15.7°C 47% 1.2 mph E1.9 kmh E 2.3 mph3.7 kmh 29.88 in1011.9 mb - 0.00 in0.0 mm 0.00 in0.0 mm
06:20 PM 81.9°F27.7°C 61.4°F16.3°C 50% Calm Calm 2.3 mph3.7 kmh 29.88 in1011.9 mb - 0.00 in0.0 mm 0.00 in0.0 mm
07:50 PM 77.9°F25.5°C 57.8°F14.3°C 50% 1.2 mph NE1.9 kmh NE 1.2 mph1.9 kmh 29.91 in1012.9 mb - 0.00 in0.0 mm 0.00 in0.0 mm
08:00 PM 78.7°F25.9°C 57.9°F14.4°C 49% 1.2 mph ENE1.9 kmh ENE 2.3 mph3.7 kmh 29.91 in1012.9 mb - 0.00 in0.0 mm 0.00 in0.0 mm
08:10 PM 78.0°F25.6°C 57.8°F14.3°C 50% Calm Calm 1.2 mph1.9 kmh 29.91 in1012.9 mb - 0.00 in0.0 mm 0.00 in0.0 mm
08:20 PM 77.6°F25.3°C 57.5°F14.2°C 50% Calm Calm -- 29.91 in1012.9 mb - 0.00 in0.0 mm 0.00 in0.0 mm
08:30 PM 77.4°F25.2°C 57.3°F14.1°C 50% 1.2 mph E1.9 kmh E 2.3 mph3.7 kmh 29.92 in1013.2 mb - 0.00 in0.0 mm 0.00 in0.0 mm
08:40 PM 77.4°F25.2°C 56.7°F13.7°C 49% 2.3 mph ESE3.7 kmh ESE 3.5 mph5.6 kmh 29.91 in1012.9 mb - 0.00 in0.0 mm 0.00 in0.0 mm
08:50 PM 77.4°F25.2°C 56.2°F13.4°C 48% 1.2 mph ESE1.9 kmh ESE 3.5 mph5.6 kmh 29.92 in1013.2 mb - 0.00 in0.0 mm 0.00 in0.0 mm
09:00 PM 77.3°F25.2°C 56.1°F13.4°C 48% 1.2 mph E1.9 kmh E 3.5 mph5.6 kmh 29.92 in1013.2 mb - 0.00 in0.0 mm 0.00 in0.0 mm
09:10 PM 77.3°F25.2°C 56.1°F13.4°C 48% Calm Calm 1.2 mph1.9 kmh 29.92 in1013.2 mb - 0.00 in0.0 mm 0.00 in0.0 mm
09:20 PM 77.1°F25.1°C 56.5°F13.6°C 49% Calm Calm 2.3 mph3.7 kmh 29.92 in1013.2 mb - 0.00 in0.0 mm 0.00 in0.0 mm
09:30 PM 77.0°F25.0°C 56.4°F13.6°C 49% Calm Calm -- 29.92 in1013.2 mb - 0.00 in0.0 mm 0.00 in0.0 mm
09:40 PM 77.1°F25.1°C 57.0°F13.9°C 50% Calm Calm 2.3 mph3.7 kmh 29.92 in1013.2 mb - 0.00 in0.0 mm 0.00 in0.0 mm
09:50 PM 78.5°F25.8°C 56.0°F13.3°C 46% 1.2 mph NE1.9 kmh NE 2.3 mph3.7 kmh 29.93 in1013.5 mb - 0.00 in0.0 mm 0.00 in0.0 mm
10:00 PM 78.1°F25.6°C 56.2°F13.4°C 47% 1.2 mph NNE1.9 kmh NNE 1.2 mph1.9 kmh 29.93 in1013.5 mb - 0.00 in0.0 mm 0.00 in0.0 mm
10:10 PM 77.9°F25.5°C 56.0°F13.3°C 47% 1.2 mph NE1.9 kmh NE 3.5 mph5.6 kmh 29.93 in1013.5 mb - 0.00 in0.0 mm 0.00 in0.0 mm